createdAt,value
2024-05-09T00:01:30.955Z,99.28
2024-05-09T00:04:01.314Z,99.22
2024-05-09T00:06:31.592Z,99.23
2024-05-09T00:09:04.644Z,98.80
2024-05-09T00:11:35.029Z,98.82
2024-05-09T00:14:05.888Z,98.70
2024-05-09T00:16:36.267Z,97.85
2024-05-09T00:19:06.695Z,98.06
2024-05-09T00:21:37.061Z,98.17
2024-05-09T00:24:10.006Z,97.94
2024-05-09T00:26:40.271Z,96.53
2024-05-09T00:29:10.635Z,96.26
2024-05-09T00:31:40.939Z,96.50
2024-05-09T00:34:11.284Z,95.91
2024-05-09T00:36:41.624Z,95.47
2024-05-09T00:39:14.612Z,95.46
2024-05-09T00:41:44.932Z,94.69
2024-05-09T00:44:15.393Z,94.72
2024-05-09T00:46:45.982Z,93.96
2024-05-09T00:49:16.657Z,94.58
2024-05-09T00:51:47.121Z,94.44
2024-05-09T00:54:21.651Z,95.28
2024-05-09T00:56:52.932Z,94.97
2024-05-09T00:59:23.609Z,94.84
2024-05-09T01:01:54.246Z,95.17
2024-05-09T01:04:24.771Z,94.84
2024-05-09T01:06:55.500Z,95.43
2024-05-09T01:09:28.586Z,95.15
2024-05-09T01:11:58.872Z,95.31
2024-05-09T01:14:29.302Z,94.97
2024-05-09T01:16:59.905Z,95.05
2024-05-09T01:19:31.834Z,97.12
2024-05-09T01:22:02.244Z,97.42
2024-05-09T01:24:35.143Z,97.66
2024-05-09T01:27:05.430Z,97.21
2024-05-09T01:29:35.849Z,97.40
2024-05-09T01:32:06.457Z,97.41
2024-05-09T01:34:36.852Z,97.23
2024-05-09T01:37:07.436Z,97.34
2024-05-09T01:39:40.375Z,97.05
2024-05-09T01:42:10.627Z,96.82
2024-05-09T01:44:41.149Z,96.25
2024-05-09T01:47:11.607Z,95.91
2024-05-09T01:49:43.401Z,96.55
2024-05-09T01:52:13.731Z,96.12
2024-05-09T01:54:46.715Z,96.66
2024-05-09T01:57:16.991Z,96.08
2024-05-09T01:59:47.244Z,95.76
2024-05-09T02:02:17.781Z,95.70
2024-05-09T02:04:50.243Z,95.40
2024-05-09T02:07:20.897Z,94.83
2024-05-09T02:09:55.627Z,95.22
2024-05-09T02:12:25.970Z,95.63
2024-05-09T02:14:56.266Z,95.99
2024-05-09T02:17:26.645Z,95.43
2024-05-09T02:19:57.151Z,94.61
2024-05-09T02:22:27.482Z,94.91
2024-05-09T02:25:00.421Z,95.71
2024-05-09T02:27:30.700Z,95.66
2024-05-09T02:30:00.938Z,96.19
2024-05-09T02:32:31.437Z,96.12
2024-05-09T02:35:01.893Z,96.03
2024-05-09T02:37:32.231Z,95.76
2024-05-09T02:40:03.298Z,96.06
2024-05-09T02:42:33.636Z,96.87
2024-05-09T02:45:01.248Z,96.44
2024-05-09T02:47:31.571Z,97.52
2024-05-09T02:49:59.480Z,98.39
2024-05-09T02:52:29.735Z,99.29
2024-05-09T02:54:57.344Z,98.74
2024-05-09T02:57:30.248Z,98.25
2024-05-09T02:59:57.851Z,96.88
2024-05-09T03:02:31.056Z,96.83
2024-05-09T03:04:59.286Z,97.09
2024-05-09T03:07:29.600Z,98.27
2024-05-09T03:09:57.192Z,98.36
2024-05-09T03:12:31.324Z,98.74
2024-05-09T03:14:58.942Z,98.62
2024-05-09T03:17:29.322Z,98.27
2024-05-09T03:19:57.057Z,98.08
2024-05-09T03:22:27.345Z,97.85
2024-05-09T03:24:55.009Z,97.67
2024-05-09T03:27:25.248Z,97.61
2024-05-09T03:29:55.533Z,97.73
2024-05-09T03:32:25.895Z,97.55
2024-05-09T03:34:53.598Z,97.76
2024-05-09T03:37:23.859Z,98.40
2024-05-09T03:39:54.062Z,98.81
2024-05-09T03:42:24.314Z,99.22
2024-05-09T03:44:54.661Z,99.69
2024-05-09T03:47:25.017Z,99.62
2024-05-09T03:49:55.347Z,98.91
2024-05-09T03:52:25.613Z,98.98
2024-05-09T03:54:53.192Z,99.31
2024-05-09T03:57:23.445Z,98.33
2024-05-09T03:59:51.035Z,98.91
2024-05-09T04:02:21.395Z,98.68
2024-05-09T04:04:51.826Z,98.97
2024-05-09T04:07:22.156Z,99.34
2024-05-09T04:09:49.751Z,100.00
2024-05-09T04:12:20.066Z,99.93
2024-05-09T04:14:47.691Z,100.00
2024-05-09T04:17:18.045Z,100.00
2024-05-09T04:19:45.716Z,100.00
2024-05-09T04:22:18.689Z,100.00
2024-05-09T04:24:46.320Z,100.00
2024-05-09T04:27:16.576Z,100.00
2024-05-09T04:29:44.178Z,100.00
2024-05-09T04:32:14.521Z,100.00
2024-05-09T04:34:42.237Z,100.00
2024-05-09T04:37:12.478Z,100.00
2024-05-09T04:39:42.725Z,100.00
2024-05-09T04:42:12.941Z,100.00
2024-05-09T04:44:40.689Z,100.00
2024-05-09T04:47:11.083Z,100.00
2024-05-09T04:49:38.844Z,100.00
2024-05-09T04:52:09.626Z,100.00
2024-05-09T04:54:37.232Z,100.00
2024-05-09T04:57:10.182Z,100.00
2024-05-09T04:59:37.842Z,100.00
2024-05-09T05:02:08.445Z,99.98
2024-05-09T05:04:36.141Z,100.00
2024-05-09T05:07:06.509Z,100.00
2024-05-09T05:09:34.183Z,100.00
2024-05-09T05:12:24.736Z,99.58
2024-05-09T05:14:55.102Z,98.97
2024-05-09T05:17:25.419Z,98.09
2024-05-09T05:19:53.351Z,97.58
2024-05-09T05:22:25.024Z,97.32
2024-05-09T05:24:52.674Z,96.70
2024-05-09T05:27:22.952Z,96.35
2024-05-09T05:29:50.575Z,95.80
2024-05-09T05:32:23.712Z,95.30
2024-05-09T05:34:51.478Z,95.14
2024-05-09T05:37:21.816Z,94.65
2024-05-09T05:39:49.407Z,94.21
2024-05-09T05:42:19.910Z,93.73
2024-05-09T05:44:47.494Z,93.54
2024-05-09T05:47:17.800Z,93.09
2024-05-09T05:49:48.080Z,92.86
2024-05-09T05:52:18.357Z,94.18
2024-05-09T05:54:48.427Z,95.16
2024-05-09T05:57:19.193Z,93.70
2024-05-09T05:59:46.819Z,89.76
2024-05-09T06:02:17.202Z,83.35
2024-05-09T06:04:45.037Z,76.04
2024-05-09T06:07:17.955Z,69.86
2024-05-09T06:09:47.628Z,64.96
2024-05-09T06:12:19.396Z,61.61
2024-05-09T06:14:47.101Z,59.16
2024-05-09T06:17:17.702Z,55.52
2024-05-09T06:19:45.452Z,54.00
2024-05-09T06:22:18.463Z,53.10
2024-05-09T06:24:46.291Z,51.41
2024-05-09T06:27:16.532Z,51.11
2024-05-09T06:29:44.169Z,49.77
2024-05-09T06:32:14.495Z,47.69
2024-05-09T06:34:42.285Z,48.57
2024-05-09T06:37:12.620Z,47.62
